sensor_id;sensor_type;location;lat;lon;timestamp;P1;durP1;ratioP1;P2;durP2;ratioP2
16593;SDS011;8410;52.532;13.336;2023-04-25T00:00:58;2.80;;;2.47;;
16593;SDS011;8410;52.532;13.336;2023-04-25T00:03:25;4.53;;;2.60;;
16593;SDS011;8410;52.532;13.336;2023-04-25T00:05:53;4.93;;;2.83;;
16593;SDS011;8410;52.532;13.336;2023-04-25T00:08:23;2.93;;;2.30;;
16593;SDS011;8410;52.532;13.336;2023-04-25T00:10:51;2.43;;;2.00;;
16593;SDS011;8410;52.532;13.336;2023-04-25T00:13:18;4.43;;;3.03;;
16593;SDS011;8410;52.532;13.336;2023-04-25T00:15:46;3.17;;;2.10;;
16593;SDS011;8410;52.532;13.336;2023-04-25T00:18:15;3.87;;;2.50;;
16593;SDS011;8410;52.532;13.336;2023-04-25T00:23:11;4.23;;;2.40;;
16593;SDS011;8410;52.532;13.336;2023-04-25T00:25:43;3.90;;;2.13;;
16593;SDS011;8410;52.532;13.336;2023-04-25T00:28:11;5.00;;;2.40;;
16593;SDS011;8410;52.532;13.336;2023-04-25T00:30:39;3.60;;;2.10;;
16593;SDS011;8410;52.532;13.336;2023-04-25T00:33:07;4.60;;;1.97;;
16593;SDS011;8410;52.532;13.336;2023-04-25T00:35:37;4.33;;;2.07;;
16593;SDS011;8410;52.532;13.336;2023-04-25T00:38:05;3.40;;;2.30;;
16593;SDS011;8410;52.532;13.336;2023-04-25T00:40:32;4.87;;;2.37;;
16593;SDS011;8410;52.532;13.336;2023-04-25T00:43:00;5.90;;;2.50;;
16593;SDS011;8410;52.532;13.336;2023-04-25T00:45:28;4.63;;;2.47;;
16593;SDS011;8410;52.532;13.336;2023-04-25T00:47:56;4.93;;;2.70;;
16593;SDS011;8410;52.532;13.336;2023-04-25T00:50:24;3.50;;;2.03;;
16593;SDS011;8410;52.532;13.336;2023-04-25T00:52:53;6.27;;;2.40;;
16593;SDS011;8410;52.532;13.336;2023-04-25T00:55:21;5.07;;;2.20;;
16593;SDS011;8410;52.532;13.336;2023-04-25T00:57:48;4.73;;;2.57;;
16593;SDS011;8410;52.532;13.336;2023-04-25T01:00:16;5.10;;;2.50;;
16593;SDS011;8410;52.532;13.336;2023-04-25T01:02:45;5.43;;;2.70;;
16593;SDS011;8410;52.532;13.336;2023-04-25T01:05:13;4.93;;;2.70;;
16593;SDS011;8410;52.532;13.336;2023-04-25T01:07:41;4.63;;;2.57;;
16593;SDS011;8410;52.532;13.336;2023-04-25T01:10:10;5.50;;;2.73;;
16593;SDS011;8410;52.532;13.336;2023-04-25T01:12:37;4.23;;;2.60;;
16593;SDS011;8410;52.532;13.336;2023-04-25T01:15:05;6.63;;;2.57;;
16593;SDS011;8410;52.532;13.336;2023-04-25T01:17:33;6.37;;;2.80;;
16593;SDS011;8410;52.532;13.336;2023-04-25T01:20:03;5.90;;;2.70;;
16593;SDS011;8410;52.532;13.336;2023-04-25T01:22:32;5.00;;;3.13;;
16593;SDS011;8410;52.532;13.336;2023-04-25T01:25:01;5.53;;;3.07;;
16593;SDS011;8410;52.532;13.336;2023-04-25T01:27:29;4.47;;;2.47;;
16593;SDS011;8410;52.532;13.336;2023-04-25T01:29:57;7.97;;;2.67;;
16593;SDS011;8410;52.532;13.336;2023-04-25T01:32:24;6.10;;;2.87;;
16593;SDS011;8410;52.532;13.336;2023-04-25T01:34:53;6.40;;;2.93;;
16593;SDS011;8410;52.532;13.336;2023-04-25T01:37:20;7.77;;;2.83;;
16593;SDS011;8410;52.532;13.336;2023-04-25T01:39:49;7.37;;;3.30;;
16593;SDS011;8410;52.532;13.336;2023-04-25T01:42:17;5.70;;;2.80;;
16593;SDS011;8410;52.532;13.336;2023-04-25T01:44:45;6.70;;;2.40;;
16593;SDS011;8410;52.532;13.336;2023-04-25T01:47:13;7.83;;;2.80;;
16593;SDS011;8410;52.532;13.336;2023-04-25T01:49:40;6.57;;;2.80;;
16593;SDS011;8410;52.532;13.336;2023-04-25T01:52:15;9.13;;;2.80;;
16593;SDS011;8410;52.532;13.336;2023-04-25T01:54:43;5.03;;;3.23;;
16593;SDS011;8410;52.532;13.336;2023-04-25T01:57:11;6.17;;;3.33;;
16593;SDS011;8410;52.532;13.336;2023-04-25T01:59:38;6.13;;;3.00;;
16593;SDS011;8410;52.532;13.336;2023-04-25T02:02:06;5.43;;;3.03;;
16593;SDS011;8410;52.532;13.336;2023-04-25T02:04:34;7.20;;;3.37;;
16593;SDS011;8410;52.532;13.336;2023-04-25T02:07:03;4.57;;;3.03;;
16593;SDS011;8410;52.532;13.336;2023-04-25T02:09:32;5.67;;;2.77;;
16593;SDS011;8410;52.532;13.336;2023-04-25T02:11:59;6.63;;;4.40;;
16593;SDS011;8410;52.532;13.336;2023-04-25T02:14:28;5.80;;;3.13;;
16593;SDS011;8410;52.532;13.336;2023-04-25T02:16:55;7.90;;;3.23;;
16593;SDS011;8410;52.532;13.336;2023-04-25T02:19:23;7.10;;;3.60;;
16593;SDS011;8410;52.532;13.336;2023-04-25T02:21:51;7.50;;;3.50;;
16593;SDS011;8410;52.532;13.336;2023-04-25T02:24:18;6.00;;;3.57;;
16593;SDS011;8410;52.532;13.336;2023-04-25T02:26:47;5.70;;;3.67;;
16593;SDS011;8410;52.532;13.336;2023-04-25T02:29:15;6.67;;;3.37;;
16593;SDS011;8410;52.532;13.336;2023-04-25T02:31:43;6.70;;;3.63;;
16593;SDS011;8410;52.532;13.336;2023-04-25T02:34:10;9.73;;;3.93;;
16593;SDS011;8410;52.532;13.336;2023-04-25T02:36:38;4.60;;;3.43;;
16593;SDS011;8410;52.532;13.336;2023-04-25T02:39:05;5.77;;;3.23;;
16593;SDS011;8410;52.532;13.336;2023-04-25T02:41:33;6.77;;;3.80;;
16593;SDS011;8410;52.532;13.336;2023-04-25T02:44:01;7.17;;;3.80;;
16593;SDS011;8410;52.532;13.336;2023-04-25T02:46:29;9.70;;;3.93;;
16593;SDS011;8410;52.532;13.336;2023-04-25T02:49:04;8.07;;;4.23;;
16593;SDS011;8410;52.532;13.336;2023-04-25T02:51:32;7.60;;;3.60;;
16593;SDS011;8410;52.532;13.336;2023-04-25T02:53:59;6.13;;;3.53;;
16593;SDS011;8410;52.532;13.336;2023-04-25T02:56:27;5.90;;;3.90;;
16593;SDS011;8410;52.532;13.336;2023-04-25T02:58:54;8.13;;;4.10;;
16593;SDS011;8410;52.532;13.336;2023-04-25T03:01:23;9.17;;;4.20;;
16593;SDS011;8410;52.532;13.336;2023-04-25T03:03:51;7.67;;;3.97;;
16593;SDS011;8410;52.532;13.336;2023-04-25T03:06:19;5.13;;;3.80;;
16593;SDS011;8410;52.532;13.336;2023-04-25T03:08:46;5.73;;;3.97;;
16593;SDS011;8410;52.532;13.336;2023-04-25T03:11:13;7.30;;;3.93;;
16593;SDS011;8410;52.532;13.336;2023-04-25T03:13:41;5.87;;;3.70;;
16593;SDS011;8410;52.532;13.336;2023-04-25T03:16:08;6.30;;;4.10;;
16593;SDS011;8410;52.532;13.336;2023-04-25T03:18:37;7.73;;;4.40;;
16593;SDS011;8410;52.532;13.336;2023-04-25T03:21:05;6.10;;;4.03;;
16593;SDS011;8410;52.532;13.336;2023-04-25T03:23:32;8.47;;;5.27;;
16593;SDS011;8410;52.532;13.336;2023-04-25T03:25:59;7.50;;;4.60;;
16593;SDS011;8410;52.532;13.336;2023-04-25T03:28:27;11.83;;;4.10;;
16593;SDS011;8410;52.532;13.336;2023-04-25T03:30:54;7.23;;;3.93;;
16593;SDS011;8410;52.532;13.336;2023-04-25T03:33:22;7.33;;;4.33;;
16593;SDS011;8410;52.532;13.336;2023-04-25T03:35:51;8.40;;;4.33;;
16593;SDS011;8410;52.532;13.336;2023-04-25T03:38:19;6.37;;;4.20;;
16593;SDS011;8410;52.532;13.336;2023-04-25T03:40:46;6.87;;;4.40;;
16593;SDS011;8410;52.532;13.336;2023-04-25T03:43:13;5.73;;;3.93;;
16593;SDS011;8410;52.532;13.336;2023-04-25T03:45:41;7.13;;;3.73;;
16593;SDS011;8410;52.532;13.336;2023-04-25T03:48:09;7.00;;;4.20;;
16593;SDS011;8410;52.532;13.336;2023-04-25T03:50:37;8.57;;;4.00;;
16593;SDS011;8410;52.532;13.336;2023-04-25T03:53:05;9.27;;;4.77;;
16593;SDS011;8410;52.532;13.336;2023-04-25T03:55:33;6.07;;;3.80;;
16593;SDS011;8410;52.532;13.336;2023-04-25T03:58:00;8.40;;;4.50;;
16593;SDS011;8410;52.532;13.336;2023-04-25T04:00:28;6.27;;;4.37;;
16593;SDS011;8410;52.532;13.336;2023-04-25T04:02:55;6.10;;;4.00;;
16593;SDS011;8410;52.532;13.336;2023-04-25T04:05:24;7.57;;;4.23;;
16593;SDS011;8410;52.532;13.336;2023-04-25T04:07:52;8.37;;;3.90;;
16593;SDS011;8410;52.532;13.336;2023-04-25T04:10:20;9.07;;;3.97;;
16593;SDS011;8410;52.532;13.336;2023-04-25T04:12:48;7.87;;;4.10;;
16593;SDS011;8410;52.532;13.336;2023-04-25T04:15:15;6.87;;;4.50;;
16593;SDS011;8410;52.532;13.336;2023-04-25T04:17:43;8.03;;;4.20;;
16593;SDS011;8410;52.532;13.336;2023-04-25T04:20:10;7.27;;;4.00;;
16593;SDS011;8410;52.532;13.336;2023-04-25T04:22:38;7.20;;;4.60;;
16593;SDS011;8410;52.532;13.336;2023-04-25T04:25:05;8.20;;;4.30;;
16593;SDS011;8410;52.532;13.336;2023-04-25T04:27:35;9.37;;;4.30;;
16593;SDS011;8410;52.532;13.336;2023-04-25T04:30:02;10.00;;;5.67;;
16593;SDS011;8410;52.532;13.336;2023-04-25T04:32:31;7.23;;;4.40;;
16593;SDS011;8410;52.532;13.336;2023-04-25T04:35:00;6.43;;;4.03;;
16593;SDS011;8410;52.532;13.336;2023-04-25T04:37:29;5.90;;;4.20;;
16593;SDS011;8410;52.532;13.336;2023-04-25T04:39:57;7.10;;;3.90;;
16593;SDS011;8410;52.532;13.336;2023-04-25T04:42:24;6.00;;;3.70;;
16593;SDS011;8410;52.532;13.336;2023-04-25T04:44:53;7.07;;;3.97;;
16593;SDS011;8410;52.532;13.336;2023-04-25T04:47:21;10.17;;;4.30;;
16593;SDS011;8410;52.532;13.336;2023-04-25T04:49:49;7.80;;;3.97;;
16593;SDS011;8410;52.532;13.336;2023-04-25T04:52:17;7.77;;;4.40;;
16593;SDS011;8410;52.532;13.336;2023-04-25T04:54:44;10.87;;;4.17;;
16593;SDS011;8410;52.532;13.336;2023-04-25T04:57:12;8.00;;;4.20;;
16593;SDS011;8410;52.532;13.336;2023-04-25T04:59:39;10.70;;;4.63;;
16593;SDS011;8410;52.532;13.336;2023-04-25T05:02:08;7.10;;;3.90;;
16593;SDS011;8410;52.532;13.336;2023-04-25T05:04:36;7.07;;;4.50;;
16593;SDS011;8410;52.532;13.336;2023-04-25T05:07:03;8.07;;;4.53;;
16593;SDS011;8410;52.532;13.336;2023-04-25T05:09:31;8.13;;;4.10;;
16593;SDS011;8410;52.532;13.336;2023-04-25T05:11:58;10.00;;;4.70;;
16593;SDS011;8410;52.532;13.336;2023-04-25T05:14:27;9.67;;;4.70;;
16593;SDS011;8410;52.532;13.336;2023-04-25T05:16:54;9.00;;;4.73;;
16593;SDS011;8410;52.532;13.336;2023-04-25T05:19:23;7.70;;;4.43;;
16593;SDS011;8410;52.532;13.336;2023-04-25T05:21:51;5.33;;;4.10;;
16593;SDS011;8410;52.532;13.336;2023-04-25T05:24:19;11.07;;;5.00;;
16593;SDS011;8410;52.532;13.336;2023-04-25T05:26:46;8.00;;;4.27;;
16593;SDS011;8410;52.532;13.336;2023-04-25T05:29:14;10.03;;;4.73;;
16593;SDS011;8410;52.532;13.336;2023-04-25T05:31:41;6.13;;;4.10;;
16593;SDS011;8410;52.532;13.336;2023-04-25T05:34:08;8.23;;;4.17;;
16593;SDS011;8410;52.532;13.336;2023-04-25T05:36:37;6.20;;;3.63;;
16593;SDS011;8410;52.532;13.336;2023-04-25T05:39:04;5.83;;;4.40;;
16593;SDS011;8410;52.532;13.336;2023-04-25T05:41:32;6.93;;;4.33;;
16593;SDS011;8410;52.532;13.336;2023-04-25T05:43:59;7.37;;;4.23;;
16593;SDS011;8410;52.532;13.336;2023-04-25T05:46:27;7.60;;;4.80;;
16593;SDS011;8410;52.532;13.336;2023-04-25T05:48:54;7.07;;;4.67;;
16593;SDS011;8410;52.532;13.336;2023-04-25T05:51:22;7.90;;;4.63;;
16593;SDS011;8410;52.532;13.336;2023-04-25T05:53:51;8.97;;;4.30;;
16593;SDS011;8410;52.532;13.336;2023-04-25T05:56:18;11.53;;;5.37;;
16593;SDS011;8410;52.532;13.336;2023-04-25T05:58:46;6.20;;;4.67;;
16593;SDS011;8410;52.532;13.336;2023-04-25T06:01:14;8.50;;;4.83;;
16593;SDS011;8410;52.532;13.336;2023-04-25T06:03:42;7.07;;;4.90;;
16593;SDS011;8410;52.532;13.336;2023-04-25T06:06:10;11.60;;;5.23;;
16593;SDS011;8410;52.532;13.336;2023-04-25T06:08:38;7.23;;;4.83;;
16593;SDS011;8410;52.532;13.336;2023-04-25T06:11:07;7.97;;;5.37;;
16593;SDS011;8410;52.532;13.336;2023-04-25T06:13:34;9.37;;;5.23;;
16593;SDS011;8410;52.532;13.336;2023-04-25T06:16:02;8.87;;;5.43;;
16593;SDS011;8410;52.532;13.336;2023-04-25T06:18:30;7.50;;;5.00;;
16593;SDS011;8410;52.532;13.336;2023-04-25T06:20:57;11.70;;;5.33;;
16593;SDS011;8410;52.532;13.336;2023-04-25T06:23:25;9.23;;;6.33;;
16593;SDS011;8410;52.532;13.336;2023-04-25T06:25:52;8.67;;;5.00;;
16593;SDS011;8410;52.532;13.336;2023-04-25T06:28:21;12.53;;;5.33;;
16593;SDS011;8410;52.532;13.336;2023-04-25T06:30:50;8.57;;;4.73;;
16593;SDS011;8410;52.532;13.336;2023-04-25T06:33:18;8.83;;;5.33;;
16593;SDS011;8410;52.532;13.336;2023-04-25T06:35:46;11.80;;;5.07;;
16593;SDS011;8410;52.532;13.336;2023-04-25T06:38:13;10.00;;;4.83;;
16593;SDS011;8410;52.532;13.336;2023-04-25T06:40:42;10.07;;;4.93;;
16593;SDS011;8410;52.532;13.336;2023-04-25T06:43:09;9.63;;;5.50;;
16593;SDS011;8410;52.532;13.336;2023-04-25T06:45:38;8.73;;;5.57;;
16593;SDS011;8410;52.532;13.336;2023-04-25T06:48:06;11.07;;;5.70;;
16593;SDS011;8410;52.532;13.336;2023-04-25T06:50:33;7.33;;;5.67;;
16593;SDS011;8410;52.532;13.336;2023-04-25T06:53:01;8.80;;;5.80;;
16593;SDS011;8410;52.532;13.336;2023-04-25T06:55:29;8.77;;;4.63;;
16593;SDS011;8410;52.532;13.336;2023-04-25T06:57:56;10.47;;;5.13;;
16593;SDS011;8410;52.532;13.336;2023-04-25T07:00:30;11.07;;;5.37;;
16593;SDS011;8410;52.532;13.336;2023-04-25T07:02:59;6.07;;;4.17;;
16593;SDS011;8410;52.532;13.336;2023-04-25T07:05:27;5.93;;;4.20;;
16593;SDS011;8410;52.532;13.336;2023-04-25T07:07:55;7.17;;;4.37;;
16593;SDS011;8410;52.532;13.336;2023-04-25T07:10:23;6.73;;;4.30;;
16593;SDS011;8410;52.532;13.336;2023-04-25T07:12:51;8.57;;;4.83;;
16593;SDS011;8410;52.532;13.336;2023-04-25T07:15:18;9.17;;;5.37;;
16593;SDS011;8410;52.532;13.336;2023-04-25T07:17:46;9.73;;;5.07;;
16593;SDS011;8410;52.532;13.336;2023-04-25T07:20:15;11.20;;;5.43;;
16593;SDS011;8410;52.532;13.336;2023-04-25T07:22:42;8.27;;;3.90;;
16593;SDS011;8410;52.532;13.336;2023-04-25T07:25:10;7.93;;;4.60;;
16593;SDS011;8410;52.532;13.336;2023-04-25T07:27:38;10.30;;;5.07;;
16593;SDS011;8410;52.532;13.336;2023-04-25T07:30:06;6.63;;;4.27;;
16593;SDS011;8410;52.532;13.336;2023-04-25T07:32:35;10.83;;;5.00;;
16593;SDS011;8410;52.532;13.336;2023-04-25T07:35:03;10.23;;;4.53;;
16593;SDS011;8410;52.532;13.336;2023-04-25T07:37:32;11.80;;;4.63;;
16593;SDS011;8410;52.532;13.336;2023-04-25T07:39:59;8.97;;;4.23;;
16593;SDS011;8410;52.532;13.336;2023-04-25T07:42:27;12.13;;;4.70;;
16593;SDS011;8410;52.532;13.336;2023-04-25T07:44:54;12.27;;;4.93;;
16593;SDS011;8410;52.532;13.336;2023-04-25T07:47:22;12.33;;;4.63;;
16593;SDS011;8410;52.532;13.336;2023-04-25T07:49:49;12.47;;;3.73;;
16593;SDS011;8410;52.532;13.336;2023-04-25T07:52:17;11.83;;;4.50;;
16593;SDS011;8410;52.532;13.336;2023-04-25T07:54:45;11.30;;;4.43;;
16593;SDS011;8410;52.532;13.336;2023-04-25T07:57:13;19.47;;;4.40;;
16593;SDS011;8410;52.532;13.336;2023-04-25T07:59:41;11.37;;;4.03;;
16593;SDS011;8410;52.532;13.336;2023-04-25T08:02:08;17.17;;;4.27;;
16593;SDS011;8410;52.532;13.336;2023-04-25T08:04:36;17.10;;;4.50;;
16593;SDS011;8410;52.532;13.336;2023-04-25T08:07:03;15.33;;;4.57;;
16593;SDS011;8410;52.532;13.336;2023-04-25T08:09:31;14.40;;;4.97;;
16593;SDS011;8410;52.532;13.336;2023-04-25T08:12:02;19.47;;;4.53;;
16593;SDS011;8410;52.532;13.336;2023-04-25T08:14:30;14.50;;;4.03;;
16593;SDS011;8410;52.532;13.336;2023-04-25T08:17:03;14.60;;;4.30;;
16593;SDS011;8410;52.532;13.336;2023-04-25T08:19:31;14.07;;;4.13;;
16593;SDS011;8410;52.532;13.336;2023-04-25T08:21:58;12.33;;;4.13;;
16593;SDS011;8410;52.532;13.336;2023-04-25T08:24:26;13.73;;;4.03;;
16593;SDS011;8410;52.532;13.336;2023-04-25T08:26:53;14.37;;;4.30;;
16593;SDS011;8410;52.532;13.336;2023-04-25T08:29:23;11.47;;;3.97;;
16593;SDS011;8410;52.532;13.336;2023-04-25T08:31:51;13.77;;;3.77;;
16593;SDS011;8410;52.532;13.336;2023-04-25T08:34:19;11.40;;;3.67;;
16593;SDS011;8410;52.532;13.336;2023-04-25T08:36:47;11.13;;;3.47;;
16593;SDS011;8410;52.532;13.336;2023-04-25T08:39:14;15.40;;;4.00;;
16593;SDS011;8410;52.532;13.336;2023-04-25T08:41:42;13.93;;;3.67;;
16593;SDS011;8410;52.532;13.336;2023-04-25T08:44:10;12.60;;;3.83;;
16593;SDS011;8410;52.532;13.336;2023-04-25T08:46:40;14.40;;;3.43;;
16593;SDS011;8410;52.532;13.336;2023-04-25T08:49:08;12.87;;;3.47;;
16593;SDS011;8410;52.532;13.336;2023-04-25T08:51:36;15.00;;;3.80;;
16593;SDS011;8410;52.532;13.336;2023-04-25T08:54:13;18.40;;;3.97;;
16593;SDS011;8410;52.532;13.336;2023-04-25T08:57:01;12.87;;;3.30;;
16593;SDS011;8410;52.532;13.336;2023-04-25T08:59:30;10.73;;;3.37;;
16593;SDS011;8410;52.532;13.336;2023-04-25T09:01:58;14.17;;;4.00;;
16593;SDS011;8410;52.532;13.336;2023-04-25T09:04:27;15.03;;;3.67;;
16593;SDS011;8410;52.532;13.336;2023-04-25T09:06:57;9.03;;;2.80;;
16593;SDS011;8410;52.532;13.336;2023-04-25T09:09:25;11.93;;;4.17;;
16593;SDS011;8410;52.532;13.336;2023-04-25T09:11:52;9.57;;;3.00;;
16593;SDS011;8410;52.532;13.336;2023-04-25T09:14:22;10.33;;;3.03;;
16593;SDS011;8410;52.532;13.336;2023-04-25T09:16:59;9.60;;;3.23;;
16593;SDS011;8410;52.532;13.336;2023-04-25T09:19:29;16.07;;;3.40;;
16593;SDS011;8410;52.532;13.336;2023-04-25T09:22:02;10.50;;;3.57;;
16593;SDS011;8410;52.532;13.336;2023-04-25T09:24:31;14.30;;;4.10;;
16593;SDS011;8410;52.532;13.336;2023-04-25T09:27:02;11.83;;;3.97;;
16593;SDS011;8410;52.532;13.336;2023-04-25T09:29:31;15.83;;;4.17;;
16593;SDS011;8410;52.532;13.336;2023-04-25T09:32:14;10.77;;;3.43;;
16593;SDS011;8410;52.532;13.336;2023-04-25T09:34:44;9.47;;;2.87;;
16593;SDS011;8410;52.532;13.336;2023-04-25T09:37:18;7.90;;;2.50;;
16593;SDS011;8410;52.532;13.336;2023-04-25T09:39:48;7.20;;;2.60;;
16593;SDS011;8410;52.532;13.336;2023-04-25T09:42:17;9.90;;;2.90;;
16593;SDS011;8410;52.532;13.336;2023-04-25T09:44:45;10.20;;;3.13;;
16593;SDS011;8410;52.532;13.336;2023-04-25T09:47:15;10.73;;;3.77;;
16593;SDS011;8410;52.532;13.336;2023-04-25T09:49:43;9.30;;;2.20;;
16593;SDS011;8410;52.532;13.336;2023-04-25T09:52:13;11.87;;;3.03;;
16593;SDS011;8410;52.532;13.336;2023-04-25T09:54:41;11.60;;;3.27;;
16593;SDS011;8410;52.532;13.336;2023-04-25T09:57:10;9.03;;;2.50;;
16593;SDS011;8410;52.532;13.336;2023-04-25T09:59:39;8.07;;;2.50;;
16593;SDS011;8410;52.532;13.336;2023-04-25T10:02:11;8.37;;;2.73;;
16593;SDS011;8410;52.532;13.336;2023-04-25T10:04:41;9.83;;;2.90;;
16593;SDS011;8410;52.532;13.336;2023-04-25T10:07:11;12.03;;;3.07;;
16593;SDS011;8410;52.532;13.336;2023-04-25T10:09:40;10.33;;;3.70;;
16593;SDS011;8410;52.532;13.336;2023-04-25T10:12:08;10.33;;;2.70;;
16593;SDS011;8410;52.532;13.336;2023-04-25T10:14:35;8.60;;;2.50;;
16593;SDS011;8410;52.532;13.336;2023-04-25T10:17:03;9.50;;;2.87;;
16593;SDS011;8410;52.532;13.336;2023-04-25T10:19:30;9.67;;;2.67;;
16593;SDS011;8410;52.532;13.336;2023-04-25T10:22:04;8.50;;;2.83;;
16593;SDS011;8410;52.532;13.336;2023-04-25T10:24:35;8.17;;;2.27;;
16593;SDS011;8410;52.532;13.336;2023-04-25T10:27:03;8.13;;;2.90;;
16593;SDS011;8410;52.532;13.336;2023-04-25T10:29:32;10.80;;;2.40;;
16593;SDS011;8410;52.532;13.336;2023-04-25T10:32:00;7.63;;;2.80;;
16593;SDS011;8410;52.532;13.336;2023-04-25T10:34:37;6.63;;;2.30;;
16593;SDS011;8410;52.532;13.336;2023-04-25T10:37:09;10.03;;;2.40;;
16593;SDS011;8410;52.532;13.336;2023-04-25T10:39:38;6.47;;;2.60;;
16593;SDS011;8410;52.532;13.336;2023-04-25T10:42:07;8.63;;;3.07;;
16593;SDS011;8410;52.532;13.336;2023-04-25T10:44:36;13.93;;;3.27;;
16593;SDS011;8410;52.532;13.336;2023-04-25T10:47:06;8.03;;;2.63;;
16593;SDS011;8410;52.532;13.336;2023-04-25T10:49:35;5.93;;;2.60;;
16593;SDS011;8410;52.532;13.336;2023-04-25T10:52:18;6.67;;;2.50;;
16593;SDS011;8410;52.532;13.336;2023-04-25T10:54:52;6.53;;;2.97;;
16593;SDS011;8410;52.532;13.336;2023-04-25T10:57:29;11.80;;;3.00;;
16593;SDS011;8410;52.532;13.336;2023-04-25T10:59:58;6.87;;;2.87;;
16593;SDS011;8410;52.532;13.336;2023-04-25T11:02:27;6.47;;;3.00;;
16593;SDS011;8410;52.532;13.336;2023-04-25T11:04:55;9.67;;;2.87;;
16593;SDS011;8410;52.532;13.336;2023-04-25T11:07:26;9.87;;;2.80;;
16593;SDS011;8410;52.532;13.336;2023-04-25T11:10:01;9.03;;;2.77;;
16593;SDS011;8410;52.532;13.336;2023-04-25T11:12:31;6.77;;;2.77;;
16593;SDS011;8410;52.532;13.336;2023-04-25T11:14:59;11.63;;;2.90;;
16593;SDS011;8410;52.532;13.336;2023-04-25T11:17:28;8.43;;;2.60;;
16593;SDS011;8410;52.532;13.336;2023-04-25T11:19:56;6.53;;;2.43;;
16593;SDS011;8410;52.532;13.336;2023-04-25T11:22:25;7.97;;;3.07;;
16593;SDS011;8410;52.532;13.336;2023-04-25T11:24:53;6.33;;;2.40;;
16593;SDS011;8410;52.532;13.336;2023-04-25T11:27:21;9.23;;;2.63;;
16593;SDS011;8410;52.532;13.336;2023-04-25T11:29:50;6.83;;;2.30;;
16593;SDS011;8410;52.532;13.336;2023-04-25T11:32:18;7.20;;;2.07;;
16593;SDS011;8410;52.532;13.336;2023-04-25T11:34:48;4.23;;;1.70;;
16593;SDS011;8410;52.532;13.336;2023-04-25T11:37:16;6.40;;;2.13;;
16593;SDS011;8410;52.532;13.336;2023-04-25T11:39:45;9.33;;;2.23;;
16593;SDS011;8410;52.532;13.336;2023-04-25T11:42:13;8.67;;;2.03;;
16593;SDS011;8410;52.532;13.336;2023-04-25T11:44:40;3.93;;;1.73;;
16593;SDS011;8410;52.532;13.336;2023-04-25T11:47:08;6.07;;;2.27;;
16593;SDS011;8410;52.532;13.336;2023-04-25T11:49:35;7.60;;;2.10;;
16593;SDS011;8410;52.532;13.336;2023-04-25T11:52:03;7.53;;;2.03;;
16593;SDS011;8410;52.532;13.336;2023-04-25T11:54:35;9.10;;;2.30;;
16593;SDS011;8410;52.532;13.336;2023-04-25T11:57:04;5.80;;;2.00;;
16593;SDS011;8410;52.532;13.336;2023-04-25T11:59:31;6.80;;;2.03;;
16593;SDS011;8410;52.532;13.336;2023-04-25T12:01:59;7.10;;;2.27;;
16593;SDS011;8410;52.532;13.336;2023-04-25T12:04:29;7.80;;;2.47;;
16593;SDS011;8410;52.532;13.336;2023-04-25T12:06:58;6.43;;;2.40;;
16593;SDS011;8410;52.532;13.336;2023-04-25T12:09:30;7.60;;;2.10;;
16593;SDS011;8410;52.532;13.336;2023-04-25T12:11:59;12.60;;;2.87;;
16593;SDS011;8410;52.532;13.336;2023-04-25T12:14:31;8.67;;;2.33;;
16593;SDS011;8410;52.532;13.336;2023-04-25T12:17:00;7.30;;;2.30;;
16593;SDS011;8410;52.532;13.336;2023-04-25T12:19:31;6.87;;;2.10;;
16593;SDS011;8410;52.532;13.336;2023-04-25T12:22:00;9.17;;;2.60;;
16593;SDS011;8410;52.532;13.336;2023-04-25T12:24:29;8.90;;;2.13;;
16593;SDS011;8410;52.532;13.336;2023-04-25T12:26:58;7.60;;;2.40;;
16593;SDS011;8410;52.532;13.336;2023-04-25T12:29:28;8.70;;;2.53;;
16593;SDS011;8410;52.532;13.336;2023-04-25T12:32:14;8.63;;;2.77;;
16593;SDS011;8410;52.532;13.336;2023-04-25T12:34:42;6.80;;;2.27;;
16593;SDS011;8410;52.532;13.336;2023-04-25T12:37:09;6.97;;;2.20;;
16593;SDS011;8410;52.532;13.336;2023-04-25T12:39:37;11.93;;;2.37;;
16593;SDS011;8410;52.532;13.336;2023-04-25T12:42:05;5.30;;;2.23;;
16593;SDS011;8410;52.532;13.336;2023-04-25T12:44:35;13.53;;;2.97;;
16593;SDS011;8410;52.532;13.336;2023-04-25T12:47:02;5.47;;;2.07;;
16593;SDS011;8410;52.532;13.336;2023-04-25T12:49:32;6.47;;;2.77;;
16593;SDS011;8410;52.532;13.336;2023-04-25T12:52:00;3.43;;;1.93;;
16593;SDS011;8410;52.532;13.336;2023-04-25T12:54:27;7.50;;;2.27;;
16593;SDS011;8410;52.532;13.336;2023-04-25T12:56:55;7.63;;;2.43;;
16593;SDS011;8410;52.532;13.336;2023-04-25T12:59:23;6.37;;;2.00;;
16593;SDS011;8410;52.532;13.336;2023-04-25T13:01:51;5.90;;;2.07;;
16593;SDS011;8410;52.532;13.336;2023-04-25T13:04:18;5.77;;;2.10;;
16593;SDS011;8410;52.532;13.336;2023-04-25T13:06:48;8.30;;;2.33;;
16593;SDS011;8410;52.532;13.336;2023-04-25T13:09:16;6.37;;;1.70;;
16593;SDS011;8410;52.532;13.336;2023-04-25T13:11:43;3.67;;;1.70;;
16593;SDS011;8410;52.532;13.336;2023-04-25T13:14:12;5.93;;;1.90;;
16593;SDS011;8410;52.532;13.336;2023-04-25T13:16:39;5.47;;;1.73;;
16593;SDS011;8410;52.532;13.336;2023-04-25T13:19:07;3.37;;;1.43;;
16593;SDS011;8410;52.532;13.336;2023-04-25T13:21:37;2.87;;;1.33;;
16593;SDS011;8410;52.532;13.336;2023-04-25T13:24:06;7.07;;;1.83;;
16593;SDS011;8410;52.532;13.336;2023-04-25T13:26:34;5.20;;;1.90;;
16593;SDS011;8410;52.532;13.336;2023-04-25T13:29:01;6.47;;;1.77;;
16593;SDS011;8410;52.532;13.336;2023-04-25T13:33:58;5.80;;;2.00;;
16593;SDS011;8410;52.532;13.336;2023-04-25T13:36:25;6.07;;;2.10;;
16593;SDS011;8410;52.532;13.336;2023-04-25T13:38:53;5.57;;;1.87;;
16593;SDS011;8410;52.532;13.336;2023-04-25T13:41:23;6.00;;;2.10;;
16593;SDS011;8410;52.532;13.336;2023-04-25T13:43:50;6.20;;;2.07;;
16593;SDS011;8410;52.532;13.336;2023-04-25T13:46:18;7.33;;;2.00;;
16593;SDS011;8410;52.532;13.336;2023-04-25T13:49:06;5.07;;;2.07;;
16593;SDS011;8410;52.532;13.336;2023-04-25T13:51:38;6.80;;;2.03;;
16593;SDS011;8410;52.532;13.336;2023-04-25T13:54:06;6.57;;;1.80;;
16593;SDS011;8410;52.532;13.336;2023-04-25T13:56:35;6.17;;;2.20;;
16593;SDS011;8410;52.532;13.336;2023-04-25T13:59:03;7.43;;;2.07;;
16593;SDS011;8410;52.532;13.336;2023-04-25T14:01:30;4.37;;;2.10;;
16593;SDS011;8410;52.532;13.336;2023-04-25T14:04:00;5.77;;;2.40;;
16593;SDS011;8410;52.532;13.336;2023-04-25T14:06:30;6.33;;;1.93;;
16593;SDS011;8410;52.532;13.336;2023-04-25T14:08:58;5.70;;;1.83;;
16593;SDS011;8410;52.532;13.336;2023-04-25T14:11:26;5.20;;;2.00;;
16593;SDS011;8410;52.532;13.336;2023-04-25T14:13:55;9.80;;;2.43;;
16593;SDS011;8410;52.532;13.336;2023-04-25T14:16:22;6.20;;;2.13;;
16593;SDS011;8410;52.532;13.336;2023-04-25T14:18:50;4.10;;;1.70;;
16593;SDS011;8410;52.532;13.336;2023-04-25T14:21:18;4.47;;;2.00;;
16593;SDS011;8410;52.532;13.336;2023-04-25T14:23:46;4.70;;;1.57;;
16593;SDS011;8410;52.532;13.336;2023-04-25T14:26:14;4.97;;;1.40;;
16593;SDS011;8410;52.532;13.336;2023-04-25T14:28:42;4.83;;;1.60;;
16593;SDS011;8410;52.532;13.336;2023-04-25T14:31:11;4.20;;;1.60;;
16593;SDS011;8410;52.532;13.336;2023-04-25T14:33:39;7.57;;;2.20;;
16593;SDS011;8410;52.532;13.336;2023-04-25T14:36:08;5.00;;;2.20;;
16593;SDS011;8410;52.532;13.336;2023-04-25T14:38:36;5.50;;;1.77;;
16593;SDS011;8410;52.532;13.336;2023-04-25T14:41:03;4.93;;;2.03;;
16593;SDS011;8410;52.532;13.336;2023-04-25T14:43:31;6.10;;;1.83;;
16593;SDS011;8410;52.532;13.336;2023-04-25T14:45:59;7.17;;;2.33;;
16593;SDS011;8410;52.532;13.336;2023-04-25T14:48:29;6.10;;;2.03;;
16593;SDS011;8410;52.532;13.336;2023-04-25T14:50:57;7.67;;;2.40;;
16593;SDS011;8410;52.532;13.336;2023-04-25T14:53:25;5.07;;;1.97;;
16593;SDS011;8410;52.532;13.336;2023-04-25T14:55:54;5.63;;;2.47;;
16593;SDS011;8410;52.532;13.336;2023-04-25T14:58:21;6.43;;;2.40;;